Time;durP1;ratioP1;P1;durP2;ratioP2;P2;SDS_P1;SDS_P2;PMS_P1;PMS_P2;Temp;Humidity;BMP_temperature;BMP_pressure;BME280_temperature;BME280_humidity;BME280_pressure;Samples;Min_cycle;Max_cycle;Signal;HPM_P1;HPM_P2
2021/08/04 00:00:04;;;;;;;57.77;2.40;;;15.80;1.00;;;;;;5114128;28;20452;-73
2021/08/04 00:02:32;;;;;;;57.87;2.30;;;15.80;1.00;;;;;;5114148;28;20867;-73
2021/08/04 00:05:00;;;;;;;58.30;2.50;;;15.80;1.00;;;;;;5112866;28;20539;-73
2021/08/04 00:07:26;;;;;;;58.27;2.40;;;15.80;1.00;;;;;;5114036;28;21034;-73
2021/08/04 00:09:53;;;;;;;58.17;2.40;;;15.70;1.00;;;;;;5113654;28;20494;-73
2021/08/04 00:12:20;;;;;;;58.33;2.87;;;15.60;1.00;;;;;;5113752;28;20443;-73
2021/08/04 00:14:47;;;;;;;57.87;2.43;;;15.60;1.00;;;;;;5114008;28;20922;-73
2021/08/04 00:17:14;;;;;;;57.83;2.60;;;15.50;1.00;;;;;;5113365;28;20537;-73
2021/08/04 00:19:42;;;;;;;58.03;2.50;;;15.40;1.00;;;;;;5113681;28;20954;-73
2021/08/04 00:22:09;;;;;;;58.23;2.80;;;15.30;1.00;;;;;;5113720;28;20726;-72
2021/08/04 00:24:36;;;;;;;58.03;2.60;;;15.40;1.00;;;;;;5113949;28;20529;-73
2021/08/04 00:27:03;;;;;;;58.07;2.50;;;15.30;1.00;;;;;;5113789;28;20506;-73
2021/08/04 00:29:30;;;;;;;58.37;2.60;;;15.20;1.00;;;;;;5113569;28;20481;-73
2021/08/04 00:31:57;;;;;;;58.10;2.50;;;15.20;1.00;;;;;;5113481;28;20467;-73
2021/08/04 00:34:24;;;;;;;58.07;2.40;;;15.10;1.00;;;;;;5113627;28;20453;-73
2021/08/04 00:36:52;;;;;;;58.23;2.60;;;15.10;1.00;;;;;;5112217;28;20852;-73
2021/08/04 00:39:19;;;;;;;58.17;2.40;;;15.10;1.00;;;;;;5113032;28;20872;-74
2021/08/04 00:41:46;;;;;;;57.93;2.40;;;15.20;1.00;;;;;;5113408;28;20466;-73
2021/08/04 00:44:12;;;;;;;59.40;2.70;;;15.10;1.00;;;;;;5113469;28;20533;-73
2021/08/04 00:46:41;;;;;;;58.50;2.97;;;15.10;1.00;;;;;;5113350;28;20809;-73
2021/08/04 00:49:08;;;;;;;58.17;2.50;;;15.10;1.00;;;;;;5112795;28;20457;-73
2021/08/04 00:51:35;;;;;;;58.20;2.40;;;15.00;1.00;;;;;;5113068;28;20557;-73
2021/08/04 00:54:05;;;;;;;58.10;2.70;;;15.00;1.00;;;;;;5113244;28;20489;-73
2021/08/04 00:56:32;;;;;;;58.23;2.47;;;14.90;1.00;;;;;;5113227;28;20484;-73
2021/08/04 00:59:00;;;;;;;58.20;2.60;;;15.00;1.00;;;;;;5112831;28;20553;-73
2021/08/04 01:01:29;;;;;;;58.23;2.37;;;15.00;1.00;;;;;;5112815;28;20553;-73
2021/08/04 01:04:01;;;;;;;58.07;2.50;;;15.00;1.00;;;;;;5112882;28;20557;-73
2021/08/04 01:06:37;;;;;;;58.17;2.50;;;15.00;1.00;;;;;;5112700;28;20443;-73
2021/08/04 01:09:09;;;;;;;58.20;2.40;;;15.00;1.00;;;;;;5111012;28;20996;-73
2021/08/04 01:11:39;;;;;;;58.20;2.90;;;15.00;1.00;;;;;;5112755;28;20523;-73
2021/08/04 01:14:12;;;;;;;58.20;2.60;;;15.00;1.00;;;;;;5112758;28;20623;-73
2021/08/04 01:16:41;;;;;;;58.50;2.60;;;15.00;1.00;;;;;;5112645;28;20492;-73
2021/08/04 01:19:18;;;;;;;57.97;2.50;;;15.00;1.00;;;;;;5112513;28;20873;-73
2021/08/04 01:21:49;;;;;;;58.03;2.57;;;15.00;1.00;;;;;;5112357;28;21047;-73
2021/08/04 01:24:25;;;;;;;59.63;3.03;;;15.00;1.00;;;;;;5112715;28;20446;-73
2021/08/04 01:26:54;;;;;;;58.07;2.77;;;15.00;1.00;;;;;;5112511;28;20961;-73
2021/08/04 01:29:25;;;;;;;58.20;2.50;;;15.00;1.00;;;;;;5112166;28;20527;-73
2021/08/04 01:31:56;;;;;;;58.30;2.53;;;14.90;1.00;;;;;;5112757;28;20476;-73
2021/08/04 01:34:25;;;;;;;58.17;2.50;;;14.90;1.00;;;;;;5112291;28;21012;-73
2021/08/04 01:36:52;;;;;;;57.70;2.70;;;14.90;1.00;;;;;;5112325;28;20580;-73
2021/08/04 01:39:21;;;;;;;58.13;2.60;;;14.90;1.00;;;;;;5112048;28;20443;-73
2021/08/04 01:41:50;;;;;;;58.30;2.63;;;14.90;1.00;;;;;;5110944;28;20815;-73
2021/08/04 01:44:19;;;;;;;58.17;2.50;;;14.90;1.10;;;;;;5110685;28;20448;-73
2021/08/04 01:46:48;;;;;;;58.00;2.60;;;14.90;3.90;;;;;;5112374;28;20437;-73
2021/08/04 01:49:15;;;;;;;58.20;2.60;;;14.90;6.10;;;;;;5112034;28;20446;-73
2021/08/04 01:51:44;;;;;;;58.37;2.50;;;14.90;9.30;;;;;;5112225;28;20894;-73
2021/08/04 01:54:11;;;;;;;57.77;2.53;;;14.90;13.50;;;;;;5112372;28;20499;-73
2021/08/04 01:56:39;;;;;;;58.07;2.53;;;14.90;17.10;;;;;;5112154;28;20497;-73
2021/08/04 01:59:07;;;;;;;58.27;2.50;;;15.00;20.70;;;;;;5112107;28;20882;-73
2021/08/04 02:01:36;;;;;;;58.13;2.47;;;15.00;22.20;;;;;;5111380;28;20549;-73
2021/08/04 02:04:03;;;;;;;58.07;2.40;;;15.00;21.70;;;;;;5112173;28;20534;-73
2021/08/04 02:06:36;;;;;;;57.77;2.43;;;14.90;20.70;;;;;;5111838;28;20853;-73
2021/08/04 02:09:07;;;;;;;58.23;2.50;;;14.90;20.50;;;;;;5112099;28;20536;-73
2021/08/04 02:11:49;;;;;;;57.63;2.37;;;14.90;20.50;;;;;;5111919;28;20485;-73
2021/08/04 02:14:21;;;;;;;58.27;2.50;;;14.90;19.90;;;;;;5110439;28;20528;-73
2021/08/04 02:16:56;;;;;;;58.10;2.50;;;14.90;19.70;;;;;;5111800;28;20481;-73
2021/08/04 02:19:29;;;;;;;58.20;2.60;;;14.90;20.90;;;;;;5111953;28;20541;-73
2021/08/04 02:22:02;;;;;;;58.13;2.40;;;14.90;23.00;;;;;;5112106;28;20823;-73
2021/08/04 02:24:33;;;;;;;57.97;2.40;;;14.90;23.90;;;;;;5111888;28;20457;-73
2021/08/04 02:27:01;;;;;;;59.00;3.40;;;15.00;25.70;;;;;;5111927;28;20548;-73
2021/08/04 02:29:31;;;;;;;58.07;2.53;;;15.00;26.00;;;;;;5111561;28;20449;-73
2021/08/04 02:32:00;;;;;;;57.70;2.50;;;15.00;25.60;;;;;;5111896;28;20552;-73
2021/08/04 02:34:28;;;;;;;58.27;2.50;;;15.00;24.60;;;;;;5111705;28;20445;-73
2021/08/04 02:36:55;;;;;;;58.10;2.50;;;15.00;24.90;;;;;;5111807;28;20473;-73
2021/08/04 02:39:22;;;;;;;58.27;3.03;;;15.00;25.50;;;;;;5111530;28;20532;-73
2021/08/04 02:41:51;;;;;;;57.97;2.47;;;15.00;26.20;;;;;;5111459;28;20927;-73
2021/08/04 02:44:18;;;;;;;58.00;2.47;;;15.00;26.60;;;;;;5111718;28;20570;-73
2021/08/04 02:46:47;;;;;;;58.07;2.37;;;15.00;27.00;;;;;;5110283;28;20441;-72
2021/08/04 02:49:16;;;;;;;59.63;3.67;;;15.00;26.70;;;;;;5111639;28;20452;-73
2021/08/04 02:51:44;;;;;;;58.03;2.47;;;15.00;26.30;;;;;;5111479;28;20509;-73
2021/08/04 02:54:13;;;;;;;58.60;2.60;;;15.00;26.50;;;;;;5111527;28;20532;-72
2021/08/04 02:56:40;;;;;;;58.17;2.70;;;14.90;24.80;;;;;;5111775;28;20862;-72
2021/08/04 02:59:07;;;;;;;57.87;2.40;;;14.90;23.40;;;;;;5111361;28;20953;-73
2021/08/04 03:01:34;;;;;;;58.07;2.40;;;14.90;22.50;;;;;;5111619;28;20910;-72
2021/08/04 03:04:01;;;;;;;58.20;2.93;;;14.80;22.10;;;;;;5111617;28;20831;-73
2021/08/04 03:06:29;;;;;;;58.37;2.50;;;14.80;21.10;;;;;;5111488;28;20448;-73
2021/08/04 03:08:56;;;;;;;58.03;2.40;;;14.80;19.90;;;;;;5111393;28;20496;-73
2021/08/04 03:11:23;;;;;;;58.20;2.50;;;14.80;17.30;;;;;;5111336;28;20885;-70
2021/08/04 03:13:50;;;;;;;58.20;2.50;;;14.80;14.60;;;;;;5113689;28;20481;-72
2021/08/04 03:16:16;;;;;;;57.97;2.37;;;14.80;12.70;;;;;;5114995;28;20861;-72
2021/08/04 03:18:43;;;;;;;58.03;2.90;;;14.70;12.00;;;;;;5113564;28;20532;-73
2021/08/04 03:21:10;;;;;;;58.10;2.60;;;14.70;12.40;;;;;;5114667;28;20548;-72
2021/08/04 03:23:38;;;;;;;58.07;2.30;;;14.70;13.90;;;;;;5114827;28;20533;-72
2021/08/04 03:26:05;;;;;;;58.33;2.70;;;14.70;14.90;;;;;;5114996;28;20439;-73
2021/08/04 03:28:33;;;;;;;58.07;2.40;;;14.70;17.10;;;;;;5115136;28;20474;-72
2021/08/04 03:31:00;;;;;;;59.03;2.90;;;14.70;18.00;;;;;;5114634;28;20465;-73
2021/08/04 03:33:26;;;;;;;57.97;2.60;;;14.80;18.30;;;;;;5114856;28;20486;-73
2021/08/04 03:35:53;;;;;;;58.13;2.47;;;14.80;17.80;;;;;;5114289;28;20568;-73
2021/08/04 03:38:20;;;;;;;58.47;2.93;;;14.80;18.20;;;;;;5114678;28;20451;-73
2021/08/04 03:40:48;;;;;;;57.67;2.70;;;14.80;18.00;;;;;;5114720;28;20569;-72
2021/08/04 03:43:15;;;;;;;58.13;2.50;;;14.80;18.20;;;;;;5114661;28;20583;-72
2021/08/04 03:45:42;;;;;;;57.87;2.50;;;14.80;18.10;;;;;;5114498;28;20480;-72
2021/08/04 03:48:09;;;;;;;58.47;2.70;;;14.80;18.80;;;;;;5114152;28;20536;-72
2021/08/04 03:50:35;;;;;;;58.10;2.50;;;14.80;19.10;;;;;;5113020;28;20505;-72
2021/08/04 03:53:02;;;;;;;58.37;3.20;;;14.80;19.00;;;;;;5114525;28;20520;-72
2021/08/04 03:55:29;;;;;;;57.77;2.60;;;14.80;19.40;;;;;;5114271;28;20533;-72
2021/08/04 03:57:57;;;;;;;58.30;2.60;;;14.80;19.00;;;;;;5114331;28;20482;-72
2021/08/04 04:00:24;;;;;;;58.40;2.80;;;14.80;18.40;;;;;;5114055;28;20522;-72
2021/08/04 04:02:51;;;;;;;58.30;2.60;;;14.80;18.20;;;;;;5114108;28;20549;-72
2021/08/04 04:05:18;;;;;;;58.07;2.80;;;14.80;18.60;;;;;;5114044;28;21008;-72
2021/08/04 04:07:45;;;;;;;58.17;2.50;;;14.80;18.50;;;;;;5113996;28;20521;-72
2021/08/04 04:10:12;;;;;;;58.13;2.60;;;14.70;18.50;;;;;;5113669;28;20502;-72
2021/08/04 04:12:39;;;;;;;58.17;2.60;;;14.70;17.30;;;;;;5113793;28;20492;-72
2021/08/04 04:15:08;;;;;;;58.20;2.53;;;14.70;17.80;;;;;;5113998;28;20533;-72
2021/08/04 04:17:35;;;;;;;58.40;2.53;;;14.70;17.70;;;;;;5113696;28;20569;-72
2021/08/04 04:20:02;;;;;;;57.97;2.50;;;14.70;17.20;;;;;;5113428;28;20882;-72
2021/08/04 04:22:29;;;;;;;58.37;2.70;;;14.70;17.40;;;;;;5112399;28;20492;-72
2021/08/04 04:24:55;;;;;;;58.03;2.70;;;14.60;16.90;;;;;;5113332;28;20532;-72
2021/08/04 04:27:22;;;;;;;57.80;2.60;;;14.60;18.00;;;;;;5113979;28;20438;-72
2021/08/04 04:29:49;;;;;;;58.10;2.80;;;14.60;19.80;;;;;;5113403;28;20537;-72
2021/08/04 04:32:17;;;;;;;58.17;2.70;;;14.60;20.10;;;;;;5113427;28;20979;-72
2021/08/04 04:34:44;;;;;;;58.23;2.70;;;14.60;20.90;;;;;;5113300;28;20462;-73
2021/08/04 04:37:11;;;;;;;58.30;2.90;;;14.60;20.70;;;;;;5113579;28;20572;-72
2021/08/04 04:39:38;;;;;;;58.63;2.90;;;14.60;20.80;;;;;;5113368;28;20907;-72
2021/08/04 04:42:05;;;;;;;57.87;2.90;;;14.60;20.10;;;;;;5113156;28;20544;-72
2021/08/04 04:44:32;;;;;;;58.20;2.60;;;14.60;20.00;;;;;;5113327;28;20441;-72
2021/08/04 04:46:59;;;;;;;58.20;2.60;;;14.60;19.20;;;;;;5113019;28;20536;-72
2021/08/04 04:49:27;;;;;;;58.17;2.90;;;14.60;18.80;;;;;;5113233;28;20545;-72
2021/08/04 04:51:54;;;;;;;58.17;2.70;;;14.60;19.40;;;;;;5113298;28;20632;-72
2021/08/04 04:54:21;;;;;;;58.23;2.80;;;14.70;19.30;;;;;;5112022;28;20532;-72
2021/08/04 04:56:48;;;;;;;58.50;2.80;;;14.70;19.40;;;;;;5113064;28;20473;-72
2021/08/04 04:59:14;;;;;;;58.17;2.60;;;14.70;19.20;;;;;;5112729;28;20537;-73
2021/08/04 05:01:41;;;;;;;57.97;2.60;;;14.70;19.40;;;;;;5112919;28;21002;-72
2021/08/04 05:04:08;;;;;;;58.10;2.80;;;14.70;19.90;;;;;;5113022;28;20542;-73
2021/08/04 05:06:36;;;;;;;58.40;2.57;;;14.80;20.40;;;;;;5113117;28;20471;-73
2021/08/04 05:09:04;;;;;;;58.33;2.70;;;14.80;20.70;;;;;;5112975;28;20587;-73
2021/08/04 05:11:30;;;;;;;58.17;2.50;;;14.80;20.40;;;;;;5112646;28;20546;-73
2021/08/04 05:13:57;;;;;;;58.20;2.60;;;14.80;20.30;;;;;;5113216;28;20552;-73
2021/08/04 05:16:24;;;;;;;57.80;2.70;;;14.90;20.40;;;;;;5113025;28;20484;-73
2021/08/04 05:18:51;;;;;;;58.37;2.90;;;14.90;19.90;;;;;;5112808;28;20913;-73
2021/08/04 05:21:18;;;;;;;57.87;2.40;;;14.90;20.40;;;;;;5112458;28;20932;-73
2021/08/04 05:23:46;;;;;;;57.77;2.57;;;14.90;19.30;;;;;;5112634;28;20964;-73
2021/08/04 05:26:13;;;;;;;58.27;2.60;;;14.90;17.60;;;;;;5110951;28;20494;-73
2021/08/04 05:28:40;;;;;;;58.60;2.80;;;14.90;17.00;;;;;;5112676;28;20454;-73
2021/08/04 05:31:07;;;;;;;58.27;2.70;;;14.90;17.20;;;;;;5112277;28;20462;-72
2021/08/04 05:33:34;;;;;;;57.80;2.40;;;14.90;17.20;;;;;;5112765;28;20496;-73
2021/08/04 05:36:01;;;;;;;58.07;2.50;;;14.90;16.60;;;;;;5111674;28;20511;-72
2021/08/04 05:38:27;;;;;;;58.10;2.60;;;14.90;16.70;;;;;;5112458;28;20569;-73
2021/08/04 05:40:56;;;;;;;58.30;2.90;;;14.90;15.60;;;;;;5111975;28;20508;-73
2021/08/04 05:43:22;;;;;;;58.07;2.90;;;15.00;13.60;;;;;;5112621;28;20441;-72
2021/08/04 05:45:49;;;;;;;57.73;2.70;;;15.00;12.10;;;;;;5112506;28;21021;-72
2021/08/04 05:48:16;;;;;;;57.60;2.40;;;15.00;10.00;;;;;;5112356;28;20452;-73
2021/08/04 05:50:43;;;;;;;57.87;2.50;;;15.10;9.90;;;;;;5112214;28;20495;-72
2021/08/04 05:53:10;;;;;;;58.17;2.40;;;15.20;7.60;;;;;;5112269;28;20465;-73
2021/08/04 05:55:37;;;;;;;57.87;2.30;;;15.30;4.60;;;;;;5112058;28;20999;-73
2021/08/04 05:58:05;;;;;;;58.90;3.90;;;15.40;3.30;;;;;;5112577;28;20566;-72
2021/08/04 06:00:32;;;;;;;57.10;2.47;;;15.50;1.00;;;;;;5092618;28;20476;-73
2021/08/04 06:02:58;;;;;;;58.33;3.53;;;15.70;1.00;;;;;;5091760;28;20534;-73
2021/08/04 06:05:25;;;;;;;58.27;2.80;;;15.70;1.00;;;;;;5091806;28;20550;-73
2021/08/04 06:07:52;;;;;;;58.07;2.47;;;15.70;1.00;;;;;;5091798;28;20475;-73
2021/08/04 06:10:19;;;;;;;58.03;2.37;;;15.80;1.00;;;;;;5091733;28;20902;-72
2021/08/04 06:12:46;;;;;;;58.17;2.30;;;15.80;1.00;;;;;;5091659;28;20487;-72
2021/08/04 06:15:14;;;;;;;57.87;2.40;;;15.80;1.00;;;;;;5091772;28;20491;-73
2021/08/04 06:17:41;;;;;;;57.63;2.30;;;15.70;1.00;;;;;;5091908;28;20481;-73
2021/08/04 06:20:09;;;;;;;57.47;2.40;;;15.70;1.00;;;;;;5091450;28;20557;-73
2021/08/04 06:22:36;;;;;;;58.50;2.80;;;15.70;1.00;;;;;;5091433;28;20452;-72
2021/08/04 06:25:03;;;;;;;58.03;2.30;;;15.70;1.00;;;;;;5091488;28;20539;-72
2021/08/04 06:27:30;;;;;;;58.30;2.43;;;15.70;1.00;;;;;;5091451;28;20443;-71
2021/08/04 06:29:57;;;;;;;58.50;2.50;;;15.70;1.00;;;;;;5091057;28;20448;-72
2021/08/04 06:32:25;;;;;;;57.97;2.30;;;15.70;1.00;;;;;;5108334;28;20452;-72
2021/08/04 06:34:52;;;;;;;58.07;2.30;;;15.80;1.00;;;;;;5111824;28;20541;-72
2021/08/04 06:37:19;;;;;;;57.93;2.20;;;15.90;1.00;;;;;;5111543;28;20571;-72
2021/08/04 06:39:45;;;;;;;57.67;2.40;;;16.00;1.00;;;;;;5111592;28;20879;-72
2021/08/04 06:42:13;;;;;;;57.77;2.30;;;16.20;1.00;;;;;;5111544;28;20443;-71
2021/08/04 06:44:40;;;;;;;57.77;2.50;;;16.30;1.00;;;;;;5111866;28;20446;-72
2021/08/04 06:47:07;;;;;;;57.87;2.30;;;16.50;1.00;;;;;;5113105;28;20958;-72
2021/08/04 06:49:35;;;;;;;57.73;2.50;;;16.60;1.00;;;;;;5115350;28;20530;-71
2021/08/04 06:52:02;;;;;;;57.83;2.47;;;16.70;1.00;;;;;;5115699;28;20474;-72
2021/08/04 06:54:29;;;;;;;57.87;2.20;;;16.80;1.00;;;;;;5115772;28;20453;-72
2021/08/04 06:56:56;;;;;;;57.70;2.70;;;16.80;1.00;;;;;;5115792;28;20484;-71
2021/08/04 06:59:23;;;;;;;58.20;2.33;;;16.90;1.00;;;;;;5115166;28;21019;-72
2021/08/04 07:01:50;;;;;;;57.90;2.40;;;17.00;1.00;;;;;;5115258;28;20479;-72
2021/08/04 07:04:17;;;;;;;58.03;2.40;;;17.00;1.00;;;;;;5113725;28;20453;-71
2021/08/04 07:06:55;;;;;;;58.77;2.50;;;17.00;1.00;;;;;;5115591;28;20456;-72
2021/08/04 07:09:22;;;;;;;58.20;2.60;;;17.10;1.00;;;;;;5115061;28;20661;-72
2021/08/04 07:11:50;;;;;;;57.47;2.23;;;17.20;1.00;;;;;;5115312;28;20557;-71
2021/08/04 07:14:17;;;;;;;57.57;2.47;;;17.20;1.00;;;;;;5115063;28;20932;-71
2021/08/04 07:16:44;;;;;;;57.57;2.20;;;17.30;1.00;;;;;;5114969;28;20448;-71
2021/08/04 07:19:11;;;;;;;57.77;2.30;;;17.40;1.00;;;;;;5114946;28;20454;-72
2021/08/04 07:21:39;;;;;;;57.63;2.30;;;17.50;1.00;;;;;;5115395;28;20470;-71
2021/08/04 07:24:08;;;;;;;57.97;2.27;;;17.50;1.00;;;;;;5114962;28;20445;-71
2021/08/04 07:26:35;;;;;;;58.00;2.60;;;17.50;1.00;;;;;;5115128;28;20455;-71
2021/08/04 07:29:02;;;;;;;57.37;2.30;;;17.40;1.00;;;;;;5114850;28;20437;-72
2021/08/04 07:31:30;;;;;;;57.77;2.10;;;17.30;1.00;;;;;;5114533;28;20476;-72
2021/08/04 07:33:57;;;;;;;57.67;2.33;;;17.30;1.00;;;;;;5113518;28;20814;-72
2021/08/04 07:36:24;;;;;;;57.47;2.30;;;17.30;1.00;;;;;;5114626;28;20523;-72
2021/08/04 07:38:51;;;;;;;58.07;2.30;;;17.20;1.00;;;;;;5114748;28;20483;-71
2021/08/04 07:41:19;;;;;;;58.17;2.40;;;17.20;1.00;;;;;;5114515;28;20503;-71
2021/08/04 07:43:49;;;;;;;58.17;2.60;;;17.20;1.00;;;;;;5114666;28;20944;-71
2021/08/04 07:46:17;;;;;;;57.67;2.20;;;17.20;1.00;;;;;;5114868;28;20807;-72
2021/08/04 07:48:44;;;;;;;57.77;2.30;;;17.40;1.00;;;;;;5114682;28;20449;-72
2021/08/04 07:51:11;;;;;;;58.00;2.30;;;17.50;1.00;;;;;;5114138;28;21028;-72
2021/08/04 07:53:37;;;;;;;58.00;2.40;;;17.70;1.00;;;;;;5114706;28;20582;-72
2021/08/04 07:56:05;;;;;;;57.83;2.00;;;17.80;1.00;;;;;;5114432;28;20476;-71
2021/08/04 07:58:33;;;;;;;58.87;2.63;;;18.00;1.00;;;;;;5113600;28;20495;-72
2021/08/04 08:01:00;;;;;;;57.43;2.10;;;18.10;1.00;;;;;;5114186;28;20465;-72
2021/08/04 08:03:27;;;;;;;57.47;2.20;;;18.30;1.00;;;;;;5114419;28;20451;-72
2021/08/04 08:05:54;;;;;;;58.17;2.37;;;18.40;1.00;;;;;;5114029;28;20532;-72
2021/08/04 08:08:21;;;;;;;57.57;2.10;;;18.60;1.00;;;;;;5112792;28;20487;-71
2021/08/04 08:10:49;;;;;;;57.47;2.10;;;18.70;1.00;;;;;;5114048;28;20472;-71
2021/08/04 08:13:17;;;;;;;58.10;2.50;;;18.80;1.00;;;;;;5113841;28;20456;-72
2021/08/04 08:15:45;;;;;;;57.53;2.40;;;18.90;1.00;;;;;;5113463;28;20540;-72
2021/08/04 08:18:13;;;;;;;58.37;2.60;;;18.90;1.00;;;;;;5114176;28;20899;-72
2021/08/04 08:20:41;;;;;;;57.83;2.27;;;19.00;1.00;;;;;;5113660;28;20548;-72
2021/08/04 08:23:09;;;;;;;57.47;2.10;;;19.10;1.00;;;;;;5113739;28;20957;-72
2021/08/04 08:25:37;;;;;;;57.87;2.30;;;19.20;1.00;;;;;;5113748;28;20533;-72
2021/08/04 08:28:05;;;;;;;57.97;2.20;;;19.30;1.00;;;;;;5114156;28;20520;-72
2021/08/04 08:30:32;;;;;;;57.90;2.30;;;19.40;1.00;;;;;;5113271;28;20541;-72
2021/08/04 08:33:00;;;;;;;57.57;2.00;;;19.30;1.00;;;;;;5113487;28;20994;-72
2021/08/04 08:35:27;;;;;;;57.47;2.10;;;19.30;1.00;;;;;;5113763;28;20891;-72
2021/08/04 08:37:54;;;;;;;58.07;2.70;;;19.30;1.00;;;;;;5111926;28;20481;-72
2021/08/04 08:40:21;;;;;;;57.90;2.00;;;19.50;1.00;;;;;;5113407;28;20468;-72
2021/08/04 08:42:48;;;;;;;57.43;2.10;;;19.50;1.00;;;;;;5113594;28;20842;-72
2021/08/04 08:45:15;;;;;;;57.20;2.30;;;19.80;1.00;;;;;;5113396;28;20540;-72
2021/08/04 08:47:43;;;;;;;58.30;2.53;;;20.00;1.00;;;;;;5113431;28;20504;-72
2021/08/04 08:50:13;;;;;;;57.77;2.20;;;20.20;1.00;;;;;;5112987;28;20469;-72
2021/08/04 08:52:40;;;;;;;57.73;2.20;;;20.30;1.00;;;;;;5113112;28;20528;-72
2021/08/04 08:55:09;;;;;;;57.27;2.10;;;20.60;1.00;;;;;;5113475;28;20491;-72
2021/08/04 08:57:36;;;;;;;58.57;2.27;;;20.70;1.00;;;;;;5113039;28;20494;-72
2021/08/04 09:00:04;;;;;;;58.00;2.40;;;20.90;1.00;;;;;;5112774;28;20540;-72
2021/08/04 09:02:31;;;;;;;57.97;2.30;;;21.00;1.00;;;;;;5113268;28;20448;-72
2021/08/04 09:05:00;;;;;;;57.97;2.50;;;21.00;1.00;;;;;;5113053;28;20818;-72
2021/08/04 09:07:33;;;;;;;57.37;2.30;;;21.10;1.00;;;;;;5112851;28;20451;-72
2021/08/04 09:10:00;;;;;;;57.90;2.30;;;21.00;1.00;;;;;;5111477;28;20449;-72
2021/08/04 09:12:27;;;;;;;57.67;2.27;;;21.00;1.00;;;;;;5113034;28;20474;-72
2021/08/04 09:14:54;;;;;;;57.67;2.00;;;21.00;1.00;;;;;;5112982;28;20475;-72
2021/08/04 09:17:21;;;;;;;57.87;2.30;;;21.10;1.00;;;;;;5112855;28;20543;-72
2021/08/04 09:19:50;;;;;;;57.77;2.10;;;21.30;1.00;;;;;;5112350;28;20449;-72
2021/08/04 09:22:22;;;;;;;57.37;2.20;;;21.40;1.00;;;;;;5112902;28;20551;-72
2021/08/04 09:25:07;;;;;;;57.57;2.20;;;21.50;1.00;;;;;;5113136;28;20484;-72
2021/08/04 09:27:42;;;;;;;57.67;2.37;;;21.70;1.00;;;;;;5112795;28;20502;-72
2021/08/04 09:30:11;;;;;;;58.17;2.40;;;21.90;1.00;;;;;;5112062;28;20544;-73
2021/08/04 09:32:38;;;;;;;58.00;2.60;;;22.20;1.00;;;;;;5112729;28;20867;-72
2021/08/04 09:35:12;;;;;;;57.77;2.20;;;22.50;1.00;;;;;;5112539;28;20536;-72
2021/08/04 09:37:39;;;;;;;57.80;2.20;;;22.60;1.00;;;;;;5113075;28;20445;-72
2021/08/04 09:40:10;;;;;;;57.97;2.20;;;22.70;1.00;;;;;;5111900;28;20494;-73
2021/08/04 09:42:46;;;;;;;57.47;2.13;;;22.80;1.00;;;;;;5110612;28;20451;-72
2021/08/04 09:45:14;;;;;;;57.67;2.10;;;22.80;1.00;;;;;;5112520;28;20578;-73
2021/08/04 09:48:02;;;;;;;57.60;2.10;;;22.70;1.00;;;;;;5112564;28;20875;-73
2021/08/04 09:50:49;;;;;;;57.60;2.10;;;22.60;1.00;;;;;;5112096;28;21042;-74
2021/08/04 09:53:21;;;;;;;57.57;2.30;;;22.40;1.00;;;;;;5112361;28;20528;-74
2021/08/04 09:56:10;;;;;;;57.97;2.47;;;22.10;1.00;;;;;;5112632;28;20484;-74
2021/08/04 09:58:38;;;;;;;57.87;2.20;;;22.00;1.00;;;;;;5112122;28;20568;-74
2021/08/04 10:01:06;;;;;;;57.73;2.40;;;22.00;1.00;;;;;;5111972;28;20474;-73
2021/08/04 10:03:34;;;;;;;57.60;2.30;;;22.00;1.00;;;;;;5112094;28;20892;-74
2021/08/04 10:06:01;;;;;;;57.77;2.17;;;22.10;1.00;;;;;;5112185;28;20449;-74
2021/08/04 10:08:28;;;;;;;57.60;2.30;;;22.00;1.00;;;;;;5112400;28;20879;-73
2021/08/04 10:10:58;;;;;;;57.67;2.10;;;21.80;1.00;;;;;;5111967;28;20476;-73
2021/08/04 10:13:31;;;;;;;57.70;2.50;;;21.70;1.00;;;;;;5110505;28;20481;-73
2021/08/04 10:16:01;;;;;;;57.67;2.60;;;21.50;1.00;;;;;;5111882;28;20453;-74
2021/08/04 10:18:31;;;;;;;57.83;2.30;;;21.10;1.00;;;;;;5112068;28;20479;-74
2021/08/04 10:21:00;;;;;;;58.00;2.37;;;20.90;1.00;;;;;;5111780;28;20472;-74
2021/08/04 10:23:28;;;;;;;58.00;2.30;;;20.60;1.00;;;;;;5115583;28;20452;-74
2021/08/04 10:25:57;;;;;;;57.63;2.30;;;20.60;1.00;;;;;;5116702;28;20496;-74
2021/08/04 10:28:26;;;;;;;57.67;2.50;;;20.70;1.00;;;;;;5116131;28;20444;-74
2021/08/04 10:30:53;;;;;;;57.57;2.40;;;21.20;1.00;;;;;;5115915;28;20476;-74
2021/08/04 10:33:20;;;;;;;57.80;2.30;;;22.00;1.00;;;;;;5116319;28;20497;-74
2021/08/04 10:35:50;;;;;;;57.80;2.10;;;22.80;1.00;;;;;;5116081;28;20493;-74
2021/08/04 10:38:20;;;;;;;58.20;2.27;;;23.70;1.00;;;;;;5115884;28;20573;-74
2021/08/04 10:40:48;;;;;;;57.73;2.20;;;24.30;1.00;;;;;;5115575;28;20473;-74
2021/08/04 10:43:38;;;;;;;57.77;2.30;;;25.00;1.00;;;;;;5115771;28;20442;-74
2021/08/04 10:46:39;;;;;;;57.80;2.23;;;25.10;1.00;;;;;;5114252;28;20536;-74
2021/08/04 10:49:22;;;;;;;57.70;2.20;;;25.20;1.00;;;;;;5115650;28;20464;-74
2021/08/04 10:52:11;;;;;;;58.17;2.60;;;25.40;1.00;;;;;;5115830;28;21102;-72
2021/08/04 10:55:01;;;;;;;57.73;2.30;;;25.40;1.00;;;;;;5115780;28;20523;-74
2021/08/04 10:57:28;;;;;;;57.70;2.20;;;26.00;1.00;;;;;;5115647;28;20460;-74
2021/08/04 11:00:24;;;;;;;57.60;2.20;;;26.70;1.00;;;;;;5115433;28;20560;-74
2021/08/04 11:02:51;;;;;;;57.60;2.27;;;27.10;1.00;;;;;;5115540;28;20477;-73
2021/08/04 11:05:17;;;;;;;57.53;2.03;;;27.70;1.00;;;;;;5115635;28;20523;-73
2021/08/04 11:08:15;;;;;;;57.37;1.97;;;28.40;1.00;;;;;;5115439;28;20536;-73
2021/08/04 11:10:43;;;;;;;58.10;2.63;;;29.20;1.00;;;;;;5102569;28;20481;-73
2021/08/04 11:13:10;;;;;;;57.63;2.20;;;29.80;1.00;;;;;;5115283;28;20442;-73
2021/08/04 11:15:38;;;;;;;57.80;2.30;;;29.60;1.00;;;;;;5115288;28;20523;-73
2021/08/04 11:18:13;;;;;;;57.47;1.90;;;29.90;1.00;;;;;;5114732;28;20515;-73
2021/08/04 11:21:10;;;;;;;57.80;2.50;;;30.40;1.00;;;;;;5114832;28;20472;-73
2021/08/04 11:23:48;;;;;;;57.23;2.00;;;31.10;1.00;;;;;;5115351;28;20825;-73
2021/08/04 11:26:27;;;;;;;57.50;2.20;;;31.00;1.00;;;;;;5115359;28;20808;-73
2021/08/04 11:28:54;;;;;;;57.77;2.20;;;30.50;1.00;;;;;;5114902;28;20451;-73
2021/08/04 11:31:23;;;;;;;57.50;2.27;;;30.00;1.00;;;;;;5114682;28;20482;-73
2021/08/04 11:33:50;;;;;;;57.17;2.00;;;29.80;1.00;;;;;;5113936;28;20878;-72
2021/08/04 11:36:21;;;;;;;57.37;2.20;;;29.70;1.00;;;;;;5114873;28;20890;-72
2021/08/04 11:38:51;;;;;;;57.60;2.10;;;29.30;1.00;;;;;;5114762;28;20861;-72
2021/08/04 11:41:24;;;;;;;57.60;2.30;;;29.10;1.00;;;;;;5114786;28;20575;-72
2021/08/04 11:43:57;;;;;;;57.60;2.10;;;29.20;1.00;;;;;;5115104;28;20451;-73
2021/08/04 11:46:40;;;;;;;57.27;2.20;;;29.00;1.00;;;;;;5114896;28;20458;-73
2021/08/04 11:49:10;;;;;;;57.60;2.20;;;28.60;1.00;;;;;;5114375;28;20446;-73
2021/08/04 11:51:41;;;;;;;57.53;2.03;;;28.20;1.00;;;;;;5114527;28;20469;-73
2021/08/04 11:54:09;;;;;;;57.33;2.20;;;28.10;1.00;;;;;;5114736;28;20544;-73
2021/08/04 11:56:41;;;;;;;57.80;2.70;;;28.10;1.00;;;;;;5114812;28;20442;-72
2021/08/04 11:59:08;;;;;;;57.37;1.97;;;28.10;1.00;;;;;;5114442;28;20568;-72
2021/08/04 12:01:36;;;;;;;57.27;1.90;;;28.00;1.00;;;;;;5114325;28;20992;-72
2021/08/04 12:04:10;;;;;;;57.90;2.30;;;27.80;1.00;;;;;;5114243;28;20450;-72
2021/08/04 12:06:38;;;;;;;57.47;2.00;;;27.70;1.00;;;;;;5114544;28;20479;-72
2021/08/04 12:09:22;;;;;;;57.77;2.20;;;27.50;1.00;;;;;;5114123;28;20881;-72
2021/08/04 12:11:49;;;;;;;57.50;2.00;;;27.20;1.00;;;;;;5114123;28;20552;-72
2021/08/04 12:14:19;;;;;;;58.13;2.43;;;27.00;1.00;;;;;;5114058;28;20445;-72
2021/08/04 12:16:50;;;;;;;57.57;1.80;;;26.90;1.00;;;;;;5113903;28;20503;-72
2021/08/04 12:19:36;;;;;;;57.50;1.80;;;26.90;1.00;;;;;;5113948;28;20518;-72
2021/08/04 12:22:04;;;;;;;57.90;2.23;;;26.70;1.00;;;;;;5114059;28;21177;-72
2021/08/04 12:24:39;;;;;;;57.53;1.90;;;26.60;1.00;;;;;;5113890;28;20448;-72
2021/08/04 12:27:06;;;;;;;57.43;1.90;;;26.50;1.00;;;;;;5113927;28;20444;-72
2021/08/04 12:29:33;;;;;;;57.40;2.00;;;26.50;1.00;;;;;;5113754;28;20870;-72
2021/08/04 12:32:15;;;;;;;57.43;1.80;;;26.60;1.00;;;;;;5113520;28;20484;-72
2021/08/04 12:34:50;;;;;;;57.77;2.00;;;26.70;1.00;;;;;;5112820;28;20448;-71
2021/08/04 12:37:17;;;;;;;57.77;2.30;;;26.80;1.00;;;;;;5112954;28;20449;-72
2021/08/04 12:39:45;;;;;;;57.57;1.83;;;26.80;1.00;;;;;;5112994;28;20500;-73
2021/08/04 12:42:13;;;;;;;57.70;1.90;;;27.00;1.00;;;;;;5113563;28;20454;-72
2021/08/04 12:44:40;;;;;;;57.33;1.80;;;27.30;1.00;;;;;;5113456;28;20806;-73
2021/08/04 12:47:16;;;;;;;57.37;1.90;;;27.20;1.00;;;;;;5113486;28;20547;-72
2021/08/04 12:49:45;;;;;;;57.47;1.90;;;26.90;1.00;;;;;;5113049;28;20445;-73
2021/08/04 12:52:13;;;;;;;57.70;2.30;;;26.60;1.00;;;;;;5113054;28;20625;-74